sensor_id;sensor_type;location;lat;lon;timestamp;pressure;altitude;pressure_sealevel;temperature
20092;BMP180;10205;49.678;6.560;2022-12-18T00:01:36;101061.00;;;-0.70
20092;BMP180;10205;49.678;6.560;2022-12-18T00:04:07;101062.00;;;-0.70
20092;BMP180;10205;49.678;6.560;2022-12-18T00:06:35;101065.00;;;-0.70
20092;BMP180;10205;49.678;6.560;2022-12-18T00:09:03;101062.00;;;-0.70
20092;BMP180;10205;49.678;6.560;2022-12-18T00:11:32;101052.00;;;-0.60
20092;BMP180;10205;49.678;6.560;2022-12-18T00:14:00;101062.00;;;-0.70
20092;BMP180;10205;49.678;6.560;2022-12-18T00:16:28;101057.00;;;-0.60
20092;BMP180;10205;49.678;6.560;2022-12-18T00:19:00;101048.00;;;-0.60
20092;BMP180;10205;49.678;6.560;2022-12-18T00:21:28;101059.00;;;-0.60
20092;BMP180;10205;49.678;6.560;2022-12-18T00:23:57;101064.00;;;-0.60
20092;BMP180;10205;49.678;6.560;2022-12-18T00:26:27;101076.00;;;-0.60
20092;BMP180;10205;49.678;6.560;2022-12-18T00:28:59;101078.00;;;-0.60
20092;BMP180;10205;49.678;6.560;2022-12-18T00:31:28;101061.00;;;-0.60
20092;BMP180;10205;49.678;6.560;2022-12-18T00:33:56;101060.00;;;-0.60
20092;BMP180;10205;49.678;6.560;2022-12-18T00:36:26;101056.00;;;-0.70
20092;BMP180;10205;49.678;6.560;2022-12-18T00:38:54;101072.00;;;-0.70
20092;BMP180;10205;49.678;6.560;2022-12-18T00:41:23;101054.00;;;-0.80
20092;BMP180;10205;49.678;6.560;2022-12-18T00:44:14;101054.00;;;-0.80
20092;BMP180;10205;49.678;6.560;2022-12-18T00:46:42;101065.00;;;-0.80
20092;BMP180;10205;49.678;6.560;2022-12-18T00:49:13;101067.00;;;-0.90
20092;BMP180;10205;49.678;6.560;2022-12-18T00:51:40;101065.00;;;-1.00
20092;BMP180;10205;49.678;6.560;2022-12-18T00:54:07;101072.00;;;-1.00
20092;BMP180;10205;49.678;6.560;2022-12-18T00:56:36;101070.00;;;-1.10
20092;BMP180;10205;49.678;6.560;2022-12-18T00:59:04;101065.00;;;-1.10
20092;BMP180;10205;49.678;6.560;2022-12-18T01:01:33;101059.00;;;-1.10
20092;BMP180;10205;49.678;6.560;2022-12-18T01:04:01;101070.00;;;-1.10
20092;BMP180;10205;49.678;6.560;2022-12-18T01:06:29;101065.00;;;-1.10
20092;BMP180;10205;49.678;6.560;2022-12-18T01:08:56;101064.00;;;-1.10
20092;BMP180;10205;49.678;6.560;2022-12-18T01:11:25;101083.00;;;-1.10
20092;BMP180;10205;49.678;6.560;2022-12-18T01:13:53;101063.00;;;-1.10
20092;BMP180;10205;49.678;6.560;2022-12-18T01:16:21;101053.00;;;-1.10
20092;BMP180;10205;49.678;6.560;2022-12-18T01:18:52;101049.00;;;-1.00
20092;BMP180;10205;49.678;6.560;2022-12-18T01:21:20;101069.00;;;-1.00
20092;BMP180;10205;49.678;6.560;2022-12-18T01:23:52;101074.00;;;-1.00
20092;BMP180;10205;49.678;6.560;2022-12-18T01:26:20;101062.00;;;-1.00
20092;BMP180;10205;49.678;6.560;2022-12-18T01:28:47;101078.00;;;-0.90
20092;BMP180;10205;49.678;6.560;2022-12-18T01:31:21;101073.00;;;-0.90
20092;BMP180;10205;49.678;6.560;2022-12-18T01:33:51;101065.00;;;-0.90
20092;BMP180;10205;49.678;6.560;2022-12-18T01:36:22;101055.00;;;-0.90
20092;BMP180;10205;49.678;6.560;2022-12-18T01:38:51;101057.00;;;-0.90
20092;BMP180;10205;49.678;6.560;2022-12-18T01:41:22;101054.00;;;-0.90
20092;BMP180;10205;49.678;6.560;2022-12-18T01:43:54;101063.00;;;-0.80
20092;BMP180;10205;49.678;6.560;2022-12-18T01:46:26;101043.00;;;-0.80
20092;BMP180;10205;49.678;6.560;2022-12-18T01:48:59;101046.00;;;-0.80
20092;BMP180;10205;49.678;6.560;2022-12-18T01:51:30;101056.00;;;-0.80
20092;BMP180;10205;49.678;6.560;2022-12-18T01:53:59;101061.00;;;-0.80
20092;BMP180;10205;49.678;6.560;2022-12-18T01:56:26;101067.00;;;-0.80
20092;BMP180;10205;49.678;6.560;2022-12-18T01:58:59;101059.00;;;-0.90
20092;BMP180;10205;49.678;6.560;2022-12-18T02:01:30;101047.00;;;-0.90
20092;BMP180;10205;49.678;6.560;2022-12-18T02:04:20;101048.00;;;-0.90
20092;BMP180;10205;49.678;6.560;2022-12-18T02:06:52;101062.00;;;-0.90
20092;BMP180;10205;49.678;6.560;2022-12-18T02:09:26;101067.00;;;-0.90
20092;BMP180;10205;49.678;6.560;2022-12-18T02:12:04;101054.00;;;-0.90
20092;BMP180;10205;49.678;6.560;2022-12-18T02:14:40;101066.00;;;-0.90
20092;BMP180;10205;49.678;6.560;2022-12-18T02:17:17;101063.00;;;-0.90
20092;BMP180;10205;49.678;6.560;2022-12-18T02:20:12;101054.00;;;-0.90
20092;BMP180;10205;49.678;6.560;2022-12-18T02:22:55;101051.00;;;-0.90
20092;BMP180;10205;49.678;6.560;2022-12-18T02:25:57;101049.00;;;-0.90
20092;BMP180;10205;49.678;6.560;2022-12-18T02:28:32;101053.00;;;-1.00
20092;BMP180;10205;49.678;6.560;2022-12-18T02:31:04;101045.00;;;-0.90
20092;BMP180;10205;49.678;6.560;2022-12-18T02:33:35;101043.00;;;-1.00
20092;BMP180;10205;49.678;6.560;2022-12-18T02:36:05;101038.00;;;-1.00
20092;BMP180;10205;49.678;6.560;2022-12-18T02:38:34;101032.00;;;-1.00
20092;BMP180;10205;49.678;6.560;2022-12-18T02:41:04;101037.00;;;-1.00
20092;BMP180;10205;49.678;6.560;2022-12-18T02:43:32;101041.00;;;-1.00
20092;BMP180;10205;49.678;6.560;2022-12-18T02:46:23;101034.00;;;-1.00
20092;BMP180;10205;49.678;6.560;2022-12-18T02:48:57;101039.00;;;-1.00
20092;BMP180;10205;49.678;6.560;2022-12-18T02:51:34;101035.00;;;-1.10
20092;BMP180;10205;49.678;6.560;2022-12-18T02:54:13;101040.00;;;-1.10
20092;BMP180;10205;49.678;6.560;2022-12-18T02:56:51;101041.00;;;-1.10
20092;BMP180;10205;49.678;6.560;2022-12-18T02:59:27;101042.00;;;-1.10
20092;BMP180;10205;49.678;6.560;2022-12-18T03:02:04;101046.00;;;-1.20
20092;BMP180;10205;49.678;6.560;2022-12-18T03:04:39;101047.00;;;-1.20
20092;BMP180;10205;49.678;6.560;2022-12-18T03:07:15;101057.00;;;-1.20
20092;BMP180;10205;49.678;6.560;2022-12-18T03:09:47;101077.00;;;-1.20
20092;BMP180;10205;49.678;6.560;2022-12-18T03:12:22;101068.00;;;-1.20
20092;BMP180;10205;49.678;6.560;2022-12-18T03:15:00;101054.00;;;-1.20
20092;BMP180;10205;49.678;6.560;2022-12-18T03:17:32;101070.00;;;-1.30
20092;BMP180;10205;49.678;6.560;2022-12-18T03:20:07;101073.00;;;-1.30
20092;BMP180;10205;49.678;6.560;2022-12-18T03:22:37;101052.00;;;-1.30
20092;BMP180;10205;49.678;6.560;2022-12-18T03:25:11;101054.00;;;-1.30
20092;BMP180;10205;49.678;6.560;2022-12-18T03:27:46;101063.00;;;-1.30
20092;BMP180;10205;49.678;6.560;2022-12-18T03:30:15;101048.00;;;-1.30
20092;BMP180;10205;49.678;6.560;2022-12-18T03:32:48;101044.00;;;-1.40
20092;BMP180;10205;49.678;6.560;2022-12-18T03:35:28;101061.00;;;-1.40
20092;BMP180;10205;49.678;6.560;2022-12-18T03:37:56;101048.00;;;-1.40
20092;BMP180;10205;49.678;6.560;2022-12-18T03:40:31;101057.00;;;-1.40
20092;BMP180;10205;49.678;6.560;2022-12-18T03:43:09;101057.00;;;-1.50
20092;BMP180;10205;49.678;6.560;2022-12-18T03:45:43;101055.00;;;-1.50
20092;BMP180;10205;49.678;6.560;2022-12-18T03:48:19;101058.00;;;-1.50
20092;BMP180;10205;49.678;6.560;2022-12-18T03:50:56;101051.00;;;-1.50
20092;BMP180;10205;49.678;6.560;2022-12-18T03:53:34;101055.00;;;-1.50
20092;BMP180;10205;49.678;6.560;2022-12-18T03:56:04;101044.00;;;-1.60
20092;BMP180;10205;49.678;6.560;2022-12-18T03:58:35;101043.00;;;-1.60
20092;BMP180;10205;49.678;6.560;2022-12-18T04:01:09;101042.00;;;-1.60
20092;BMP180;10205;49.678;6.560;2022-12-18T04:03:37;101036.00;;;-1.60
20092;BMP180;10205;49.678;6.560;2022-12-18T04:06:05;101052.00;;;-1.60
20092;BMP180;10205;49.678;6.560;2022-12-18T04:08:34;101055.00;;;-1.70
20092;BMP180;10205;49.678;6.560;2022-12-18T04:11:02;101044.00;;;-1.70
20092;BMP180;10205;49.678;6.560;2022-12-18T04:13:36;101037.00;;;-1.70
20092;BMP180;10205;49.678;6.560;2022-12-18T04:16:04;101026.00;;;-1.70
20092;BMP180;10205;49.678;6.560;2022-12-18T04:18:35;101040.00;;;-1.80
20092;BMP180;10205;49.678;6.560;2022-12-18T04:21:03;101022.00;;;-1.80
20092;BMP180;10205;49.678;6.560;2022-12-18T04:23:30;101030.00;;;-1.80
20092;BMP180;10205;49.678;6.560;2022-12-18T04:25:57;101040.00;;;-1.80
20092;BMP180;10205;49.678;6.560;2022-12-18T04:28:24;101030.00;;;-1.80
20092;BMP180;10205;49.678;6.560;2022-12-18T04:30:52;101028.00;;;-1.90
20092;BMP180;10205;49.678;6.560;2022-12-18T04:33:19;101026.00;;;-1.90
20092;BMP180;10205;49.678;6.560;2022-12-18T04:35:46;101022.00;;;-1.90
20092;BMP180;10205;49.678;6.560;2022-12-18T04:38:13;101042.00;;;-1.90
20092;BMP180;10205;49.678;6.560;2022-12-18T04:40:41;101043.00;;;-1.90
20092;BMP180;10205;49.678;6.560;2022-12-18T04:43:08;101032.00;;;-1.90
20092;BMP180;10205;49.678;6.560;2022-12-18T04:45:36;101031.00;;;-2.00
20092;BMP180;10205;49.678;6.560;2022-12-18T04:48:05;101029.00;;;-2.00
20092;BMP180;10205;49.678;6.560;2022-12-18T04:50:32;101017.00;;;-2.00
20092;BMP180;10205;49.678;6.560;2022-12-18T04:52:59;101029.00;;;-2.00
20092;BMP180;10205;49.678;6.560;2022-12-18T04:55:27;101039.00;;;-2.10
20092;BMP180;10205;49.678;6.560;2022-12-18T04:57:54;101048.00;;;-2.10
20092;BMP180;10205;49.678;6.560;2022-12-18T05:00:21;101038.00;;;-2.10
20092;BMP180;10205;49.678;6.560;2022-12-18T05:02:49;101051.00;;;-2.10
20092;BMP180;10205;49.678;6.560;2022-12-18T05:05:18;101043.00;;;-2.20
20092;BMP180;10205;49.678;6.560;2022-12-18T05:07:45;101050.00;;;-2.20
20092;BMP180;10205;49.678;6.560;2022-12-18T05:10:12;101050.00;;;-2.20
20092;BMP180;10205;49.678;6.560;2022-12-18T05:12:39;101056.00;;;-2.20
20092;BMP180;10205;49.678;6.560;2022-12-18T05:15:24;101072.00;;;-2.20
20092;BMP180;10205;49.678;6.560;2022-12-18T05:17:51;101059.00;;;-2.30
20092;BMP180;10205;49.678;6.560;2022-12-18T05:20:19;101064.00;;;-2.30
20092;BMP180;10205;49.678;6.560;2022-12-18T05:22:46;101080.00;;;-2.30
20092;BMP180;10205;49.678;6.560;2022-12-18T05:25:14;101063.00;;;-2.30
20092;BMP180;10205;49.678;6.560;2022-12-18T05:27:41;101067.00;;;-2.30
20092;BMP180;10205;49.678;6.560;2022-12-18T05:30:09;101060.00;;;-2.30
20092;BMP180;10205;49.678;6.560;2022-12-18T05:32:37;101074.00;;;-2.40
20092;BMP180;10205;49.678;6.560;2022-12-18T05:35:07;101064.00;;;-2.40
20092;BMP180;10205;49.678;6.560;2022-12-18T05:37:36;101080.00;;;-2.40
20092;BMP180;10205;49.678;6.560;2022-12-18T05:40:05;101074.00;;;-2.40
20092;BMP180;10205;49.678;6.560;2022-12-18T05:42:32;101079.00;;;-2.40
20092;BMP180;10205;49.678;6.560;2022-12-18T05:44:59;101085.00;;;-2.50
20092;BMP180;10205;49.678;6.560;2022-12-18T05:47:27;101085.00;;;-2.50
20092;BMP180;10205;49.678;6.560;2022-12-18T05:49:54;101106.00;;;-2.50
20092;BMP180;10205;49.678;6.560;2022-12-18T05:52:21;101088.00;;;-2.50
20092;BMP180;10205;49.678;6.560;2022-12-18T05:54:50;101085.00;;;-2.60
20092;BMP180;10205;49.678;6.560;2022-12-18T05:57:17;101084.00;;;-2.50
20092;BMP180;10205;49.678;6.560;2022-12-18T05:59:44;101085.00;;;-2.60
20092;BMP180;10205;49.678;6.560;2022-12-18T06:02:11;101085.00;;;-2.60
20092;BMP180;10205;49.678;6.560;2022-12-18T06:04:39;101085.00;;;-2.60
20092;BMP180;10205;49.678;6.560;2022-12-18T06:07:06;101079.00;;;-2.60
20092;BMP180;10205;49.678;6.560;2022-12-18T06:09:33;101081.00;;;-2.60
20092;BMP180;10205;49.678;6.560;2022-12-18T06:12:01;101084.00;;;-2.60
20092;BMP180;10205;49.678;6.560;2022-12-18T06:14:28;101087.00;;;-2.70
20092;BMP180;10205;49.678;6.560;2022-12-18T06:16:57;101083.00;;;-2.70
20092;BMP180;10205;49.678;6.560;2022-12-18T06:19:24;101101.00;;;-2.70
20092;BMP180;10205;49.678;6.560;2022-12-18T06:21:51;101109.00;;;-2.70
20092;BMP180;10205;49.678;6.560;2022-12-18T06:24:18;101092.00;;;-2.80
20092;BMP180;10205;49.678;6.560;2022-12-18T06:26:46;101092.00;;;-2.80
20092;BMP180;10205;49.678;6.560;2022-12-18T06:29:14;101096.00;;;-2.80
20092;BMP180;10205;49.678;6.560;2022-12-18T06:31:41;101094.00;;;-2.80
20092;BMP180;10205;49.678;6.560;2022-12-18T06:34:08;101114.00;;;-2.80
20092;BMP180;10205;49.678;6.560;2022-12-18T06:36:35;101102.00;;;-2.80
20092;BMP180;10205;49.678;6.560;2022-12-18T06:39:02;101101.00;;;-2.80
20092;BMP180;10205;49.678;6.560;2022-12-18T06:41:30;101101.00;;;-2.80
20092;BMP180;10205;49.678;6.560;2022-12-18T06:43:57;101108.00;;;-2.80
20092;BMP180;10205;49.678;6.560;2022-12-18T06:46:26;101111.00;;;-2.80
20092;BMP180;10205;49.678;6.560;2022-12-18T06:48:55;101107.00;;;-2.90
20092;BMP180;10205;49.678;6.560;2022-12-18T06:51:24;101110.00;;;-2.90
20092;BMP180;10205;49.678;6.560;2022-12-18T06:53:51;101118.00;;;-2.90
20092;BMP180;10205;49.678;6.560;2022-12-18T06:56:18;101123.00;;;-2.90
20092;BMP180;10205;49.678;6.560;2022-12-18T06:58:45;101129.00;;;-2.90
20092;BMP180;10205;49.678;6.560;2022-12-18T07:01:13;101137.00;;;-2.90
20092;BMP180;10205;49.678;6.560;2022-12-18T07:03:42;101130.00;;;-2.90
20092;BMP180;10205;49.678;6.560;2022-12-18T07:06:14;101131.00;;;-3.00
20092;BMP180;10205;49.678;6.560;2022-12-18T07:08:42;101133.00;;;-3.00
20092;BMP180;10205;49.678;6.560;2022-12-18T07:11:09;101137.00;;;-3.00
20092;BMP180;10205;49.678;6.560;2022-12-18T07:13:36;101139.00;;;-3.00
20092;BMP180;10205;49.678;6.560;2022-12-18T07:16:07;101145.00;;;-3.00
20092;BMP180;10205;49.678;6.560;2022-12-18T07:18:34;101149.00;;;-3.00
20092;BMP180;10205;49.678;6.560;2022-12-18T07:21:07;101169.00;;;-3.00
20092;BMP180;10205;49.678;6.560;2022-12-18T07:23:36;101158.00;;;-3.10
20092;BMP180;10205;49.678;6.560;2022-12-18T07:26:05;101163.00;;;-3.10
20092;BMP180;10205;49.678;6.560;2022-12-18T07:28:33;101165.00;;;-3.10
20092;BMP180;10205;49.678;6.560;2022-12-18T07:31:03;101170.00;;;-3.10
20092;BMP180;10205;49.678;6.560;2022-12-18T07:33:32;101173.00;;;-3.20
20092;BMP180;10205;49.678;6.560;2022-12-18T07:35:59;101166.00;;;-3.10
20092;BMP180;10205;49.678;6.560;2022-12-18T07:38:28;101157.00;;;-3.20
20092;BMP180;10205;49.678;6.560;2022-12-18T07:41:00;101149.00;;;-3.20
20092;BMP180;10205;49.678;6.560;2022-12-18T07:43:27;101138.00;;;-3.20
20092;BMP180;10205;49.678;6.560;2022-12-18T07:45:55;101126.00;;;-3.20
20092;BMP180;10205;49.678;6.560;2022-12-18T07:48:22;101120.00;;;-3.20
20092;BMP180;10205;49.678;6.560;2022-12-18T07:50:49;101127.00;;;-3.20
20092;BMP180;10205;49.678;6.560;2022-12-18T07:53:16;101119.00;;;-3.20
20092;BMP180;10205;49.678;6.560;2022-12-18T07:55:44;101136.00;;;-3.30
20092;BMP180;10205;49.678;6.560;2022-12-18T07:58:11;101117.00;;;-3.30
20092;BMP180;10205;49.678;6.560;2022-12-18T08:00:38;101122.00;;;-3.30
20092;BMP180;10205;49.678;6.560;2022-12-18T08:03:05;101124.00;;;-3.30
20092;BMP180;10205;49.678;6.560;2022-12-18T08:05:32;101120.00;;;-3.30
20092;BMP180;10205;49.678;6.560;2022-12-18T08:07:59;101116.00;;;-3.30
20092;BMP180;10205;49.678;6.560;2022-12-18T08:10:26;101135.00;;;-3.30
20092;BMP180;10205;49.678;6.560;2022-12-18T08:12:55;101120.00;;;-3.30
20092;BMP180;10205;49.678;6.560;2022-12-18T08:15:22;101120.00;;;-3.30
20092;BMP180;10205;49.678;6.560;2022-12-18T08:17:49;101114.00;;;-3.30
20092;BMP180;10205;49.678;6.560;2022-12-18T08:20:16;101117.00;;;-3.30
20092;BMP180;10205;49.678;6.560;2022-12-18T08:22:44;101114.00;;;-3.40
20092;BMP180;10205;49.678;6.560;2022-12-18T08:25:11;101113.00;;;-3.30
20092;BMP180;10205;49.678;6.560;2022-12-18T08:27:38;101121.00;;;-3.30
20092;BMP180;10205;49.678;6.560;2022-12-18T08:30:10;101113.00;;;-3.40
20092;BMP180;10205;49.678;6.560;2022-12-18T08:32:37;101118.00;;;-3.40
20092;BMP180;10205;49.678;6.560;2022-12-18T08:35:05;101120.00;;;-3.40
20092;BMP180;10205;49.678;6.560;2022-12-18T08:37:33;101121.00;;;-3.40
20092;BMP180;10205;49.678;6.560;2022-12-18T08:40:00;101111.00;;;-3.40
20092;BMP180;10205;49.678;6.560;2022-12-18T08:42:27;101105.00;;;-3.40
20092;BMP180;10205;49.678;6.560;2022-12-18T08:45:25;101108.00;;;-3.40
20092;BMP180;10205;49.678;6.560;2022-12-18T08:47:52;101124.00;;;-3.40
20092;BMP180;10205;49.678;6.560;2022-12-18T08:50:19;101133.00;;;-3.40
20092;BMP180;10205;49.678;6.560;2022-12-18T08:52:46;101138.00;;;-3.40
20092;BMP180;10205;49.678;6.560;2022-12-18T08:55:14;101146.00;;;-3.40
20092;BMP180;10205;49.678;6.560;2022-12-18T08:57:41;101141.00;;;-3.40
20092;BMP180;10205;49.678;6.560;2022-12-18T09:00:10;101143.00;;;-3.40
20092;BMP180;10205;49.678;6.560;2022-12-18T09:02:40;101160.00;;;-3.40
20092;BMP180;10205;49.678;6.560;2022-12-18T09:05:07;101137.00;;;-3.40
20092;BMP180;10205;49.678;6.560;2022-12-18T09:07:34;101141.00;;;-3.40
20092;BMP180;10205;49.678;6.560;2022-12-18T09:10:01;101143.00;;;-3.40
20092;BMP180;10205;49.678;6.560;2022-12-18T09:12:29;101158.00;;;-3.40
20092;BMP180;10205;49.678;6.560;2022-12-18T09:14:58;101157.00;;;-3.30
20092;BMP180;10205;49.678;6.560;2022-12-18T09:17:25;101167.00;;;-3.30
20092;BMP180;10205;49.678;6.560;2022-12-18T09:19:53;101164.00;;;-3.30
20092;BMP180;10205;49.678;6.560;2022-12-18T09:22:20;101144.00;;;-3.30
20092;BMP180;10205;49.678;6.560;2022-12-18T09:24:49;101149.00;;;-3.30
20092;BMP180;10205;49.678;6.560;2022-12-18T09:27:16;101141.00;;;-3.30
20092;BMP180;10205;49.678;6.560;2022-12-18T09:29:43;101140.00;;;-3.20
20092;BMP180;10205;49.678;6.560;2022-12-18T09:32:10;101137.00;;;-3.20
20092;BMP180;10205;49.678;6.560;2022-12-18T09:34:37;101138.00;;;-3.20
20092;BMP180;10205;49.678;6.560;2022-12-18T09:37:05;101134.00;;;-3.20
20092;BMP180;10205;49.678;6.560;2022-12-18T09:39:33;101143.00;;;-3.20
20092;BMP180;10205;49.678;6.560;2022-12-18T09:42:03;101140.00;;;-3.10
20092;BMP180;10205;49.678;6.560;2022-12-18T09:44:34;101144.00;;;-3.10
20092;BMP180;10205;49.678;6.560;2022-12-18T09:47:10;101143.00;;;-3.10
20092;BMP180;10205;49.678;6.560;2022-12-18T09:49:43;101144.00;;;-3.00
20092;BMP180;10205;49.678;6.560;2022-12-18T09:52:18;101139.00;;;-3.00
20092;BMP180;10205;49.678;6.560;2022-12-18T09:54:52;101129.00;;;-3.00
20092;BMP180;10205;49.678;6.560;2022-12-18T09:57:23;101119.00;;;-3.00
20092;BMP180;10205;49.678;6.560;2022-12-18T09:59:56;101113.00;;;-2.90
20092;BMP180;10205;49.678;6.560;2022-12-18T10:02:30;101120.00;;;-2.90
20092;BMP180;10205;49.678;6.560;2022-12-18T10:05:05;101120.00;;;-2.90
20092;BMP180;10205;49.678;6.560;2022-12-18T10:07:49;101116.00;;;-2.80
20092;BMP180;10205;49.678;6.560;2022-12-18T10:10:32;101107.00;;;-2.80
20092;BMP180;10205;49.678;6.560;2022-12-18T10:13:12;101104.00;;;-2.80
20092;BMP180;10205;49.678;6.560;2022-12-18T10:15:54;101113.00;;;-2.80
20092;BMP180;10205;49.678;6.560;2022-12-18T10:18:38;101099.00;;;-2.70
20092;BMP180;10205;49.678;6.560;2022-12-18T10:21:13;101099.00;;;-2.70
20092;BMP180;10205;49.678;6.560;2022-12-18T10:23:55;101068.00;;;-2.70
20092;BMP180;10205;49.678;6.560;2022-12-18T10:26:25;101088.00;;;-2.60
20092;BMP180;10205;49.678;6.560;2022-12-18T10:28:54;101073.00;;;-2.60
20092;BMP180;10205;49.678;6.560;2022-12-18T10:31:24;101066.00;;;-2.60
20092;BMP180;10205;49.678;6.560;2022-12-18T10:33:53;101065.00;;;-2.60
20092;BMP180;10205;49.678;6.560;2022-12-18T10:36:20;101064.00;;;-2.50
20092;BMP180;10205;49.678;6.560;2022-12-18T10:38:49;101057.00;;;-2.50
20092;BMP180;10205;49.678;6.560;2022-12-18T10:41:26;101063.00;;;-2.50
20092;BMP180;10205;49.678;6.560;2022-12-18T10:44:12;101057.00;;;-2.50
20092;BMP180;10205;49.678;6.560;2022-12-18T10:46:40;101038.00;;;-2.40
20092;BMP180;10205;49.678;6.560;2022-12-18T10:49:20;101061.00;;;-2.40
20092;BMP180;10205;49.678;6.560;2022-12-18T10:51:49;101053.00;;;-2.40
20092;BMP180;10205;49.678;6.560;2022-12-18T10:54:21;101047.00;;;-2.40
20092;BMP180;10205;49.678;6.560;2022-12-18T10:56:49;101033.00;;;-2.30
20092;BMP180;10205;49.678;6.560;2022-12-18T10:59:18;101036.00;;;-2.30
20092;BMP180;10205;49.678;6.560;2022-12-18T11:01:49;101022.00;;;-2.30
20092;BMP180;10205;49.678;6.560;2022-12-18T11:04:20;101024.00;;;-2.20
20092;BMP180;10205;49.678;6.560;2022-12-18T11:07:00;101031.00;;;-2.20
20092;BMP180;10205;49.678;6.560;2022-12-18T11:09:31;101027.00;;;-2.20
20092;BMP180;10205;49.678;6.560;2022-12-18T11:12:02;101028.00;;;-2.20
20092;BMP180;10205;49.678;6.560;2022-12-18T11:14:35;101023.00;;;-2.10
20092;BMP180;10205;49.678;6.560;2022-12-18T11:17:19;101013.00;;;-2.10
20092;BMP180;10205;49.678;6.560;2022-12-18T11:19:53;101023.00;;;-2.00
20092;BMP180;10205;49.678;6.560;2022-12-18T11:22:24;100997.00;;;-2.00
20092;BMP180;10205;49.678;6.560;2022-12-18T11:24:58;101005.00;;;-2.00
20092;BMP180;10205;49.678;6.560;2022-12-18T11:27:26;100994.00;;;-2.00
20092;BMP180;10205;49.678;6.560;2022-12-18T11:30:10;101001.00;;;-1.90
20092;BMP180;10205;49.678;6.560;2022-12-18T11:32:47;100999.00;;;-1.90
20092;BMP180;10205;49.678;6.560;2022-12-18T11:35:21;101023.00;;;-1.80
20092;BMP180;10205;49.678;6.560;2022-12-18T11:37:57;100998.00;;;-1.80
20092;BMP180;10205;49.678;6.560;2022-12-18T11:40:33;100997.00;;;-1.80
20092;BMP180;10205;49.678;6.560;2022-12-18T11:43:10;100998.00;;;-1.80
20092;BMP180;10205;49.678;6.560;2022-12-18T11:45:47;100997.00;;;-1.70
20092;BMP180;10205;49.678;6.560;2022-12-18T11:48:21;101014.00;;;-1.70
20092;BMP180;10205;49.678;6.560;2022-12-18T11:50:52;101022.00;;;-1.60
20092;BMP180;10205;49.678;6.560;2022-12-18T11:53:20;100987.00;;;-1.60
20092;BMP180;10205;49.678;6.560;2022-12-18T11:56:05;100986.00;;;-1.60
20092;BMP180;10205;49.678;6.560;2022-12-18T11:58:53;100975.00;;;-1.60
20092;BMP180;10205;49.678;6.560;2022-12-18T12:01:42;100972.00;;;-1.50
20092;BMP180;10205;49.678;6.560;2022-12-18T12:04:43;100967.00;;;-1.50
20092;BMP180;10205;49.678;6.560;2022-12-18T12:07:23;100963.00;;;-1.40
20092;BMP180;10205;49.678;6.560;2022-12-18T12:10:07;100951.00;;;-1.40
20092;BMP180;10205;49.678;6.560;2022-12-18T12:12:59;100940.00;;;-1.40
20092;BMP180;10205;49.678;6.560;2022-12-18T12:15:40;100939.00;;;-1.30
20092;BMP180;10205;49.678;6.560;2022-12-18T12:18:23;100926.00;;;-1.30
20092;BMP180;10205;49.678;6.560;2022-12-18T12:21:05;100933.00;;;-1.20
20092;BMP180;10205;49.678;6.560;2022-12-18T12:23:43;100929.00;;;-1.20
20092;BMP180;10205;49.678;6.560;2022-12-18T12:26:18;100942.00;;;-1.20
20092;BMP180;10205;49.678;6.560;2022-12-18T12:29:13;100940.00;;;-1.10
20092;BMP180;10205;49.678;6.560;2022-12-18T12:32:04;100925.00;;;-1.10
20092;BMP180;10205;49.678;6.560;2022-12-18T12:34:47;100925.00;;;-1.00
20092;BMP180;10205;49.678;6.560;2022-12-18T12:37:30;100920.00;;;-1.00
20092;BMP180;10205;49.678;6.560;2022-12-18T12:40:03;100909.00;;;-1.00
20092;BMP180;10205;49.678;6.560;2022-12-18T12:42:38;100917.00;;;-0.90
20092;BMP180;10205;49.678;6.560;2022-12-18T12:45:36;100914.00;;;-0.90
20092;BMP180;10205;49.678;6.560;2022-12-18T12:48:13;100914.00;;;-0.90
20092;BMP180;10205;49.678;6.560;2022-12-18T12:50:43;100914.00;;;-0.80
20092;BMP180;10205;49.678;6.560;2022-12-18T12:53:26;100943.00;;;-0.80
20092;BMP180;10205;49.678;6.560;2022-12-18T12:55:56;100922.00;;;-0.70
20092;BMP180;10205;49.678;6.560;2022-12-18T12:58:35;100908.00;;;-0.70
20092;BMP180;10205;49.678;6.560;2022-12-18T13:01:33;100913.00;;;-0.70
20092;BMP180;10205;49.678;6.560;2022-12-18T13:04:18;100910.00;;;-0.60
20092;BMP180;10205;49.678;6.560;2022-12-18T13:06:57;100930.00;;;-0.60
20092;BMP180;10205;49.678;6.560;2022-12-18T13:09:31;100908.00;;;-0.60
20092;BMP180;10205;49.678;6.560;2022-12-18T13:12:03;100900.00;;;-0.50
20092;BMP180;10205;49.678;6.560;2022-12-18T13:14:49;100897.00;;;-0.50
20092;BMP180;10205;49.678;6.560;2022-12-18T13:17:29;100892.00;;;-0.50
20092;BMP180;10205;49.678;6.560;2022-12-18T13:20:09;100905.00;;;-0.40
20092;BMP180;10205;49.678;6.560;2022-12-18T13:22:41;100896.00;;;-0.40
20092;BMP180;10205;49.678;6.560;2022-12-18T13:25:31;100911.00;;;-0.40
20092;BMP180;10205;49.678;6.560;2022-12-18T13:28:07;100887.00;;;-0.30
20092;BMP180;10205;49.678;6.560;2022-12-18T13:30:48;100897.00;;;-0.30
20092;BMP180;10205;49.678;6.560;2022-12-18T13:33:43;100890.00;;;-0.30
20092;BMP180;10205;49.678;6.560;2022-12-18T13:36:26;100899.00;;;-0.20
20092;BMP180;10205;49.678;6.560;2022-12-18T13:39:31;100885.00;;;-0.20
20092;BMP180;10205;49.678;6.560;2022-12-18T13:42:42;100872.00;;;-0.20
20092;BMP180;10205;49.678;6.560;2022-12-18T13:45:41;100873.00;;;-0.20
20092;BMP180;10205;49.678;6.560;2022-12-18T13:48:21;100855.00;;;-0.20
20092;BMP180;10205;49.678;6.560;2022-12-18T13:50:56;100856.00;;;-0.10
20092;BMP180;10205;49.678;6.560;2022-12-18T13:53:29;100847.00;;;-0.10
20092;BMP180;10205;49.678;6.560;2022-12-18T13:55:58;100856.00;;;-0.10
20092;BMP180;10205;49.678;6.560;2022-12-18T13:58:25;100853.00;;;0.00
20092;BMP180;10205;49.678;6.560;2022-12-18T14:00:52;100846.00;;;0.00
20092;BMP180;10205;49.678;6.560;2022-12-18T14:03:23;100859.00;;;0.00
20092;BMP180;10205;49.678;6.560;2022-12-18T14:06:02;100858.00;;;0.10
20092;BMP180;10205;49.678;6.560;2022-12-18T14:08:37;100864.00;;;0.10
20092;BMP180;10205;49.678;6.560;2022-12-18T14:11:07;100857.00;;;0.10
20092;BMP180;10205;49.678;6.560;2022-12-18T14:13:42;100863.00;;;0.10
20092;BMP180;10205;49.678;6.560;2022-12-18T14:16:15;100844.00;;;0.20
20092;BMP180;10205;49.678;6.560;2022-12-18T14:18:47;100857.00;;;0.20
20092;BMP180;10205;49.678;6.560;2022-12-18T14:21:25;100871.00;;;0.20
20092;BMP180;10205;49.678;6.560;2022-12-18T14:24:13;100887.00;;;0.20
20092;BMP180;10205;49.678;6.560;2022-12-18T14:26:41;100858.00;;;0.20